createdAt,value
2022-10-18T00:00:43.845Z,9.00
2022-10-18T00:03:32.245Z,8.90
2022-10-18T00:06:00.879Z,8.90
2022-10-18T00:08:29.263Z,9.00
2022-10-18T00:10:57.162Z,9.10
2022-10-18T00:13:25.088Z,9.10
2022-10-18T00:15:55.820Z,9.00
2022-10-18T00:18:23.800Z,8.90
2022-10-18T00:21:18.992Z,9.10
2022-10-18T00:23:48.382Z,8.50
2022-10-18T00:26:19.317Z,8.60
2022-10-18T00:28:50.602Z,9.40
2022-10-18T00:31:22.024Z,8.50
2022-10-18T00:33:53.032Z,8.90
2022-10-18T00:36:21.757Z,8.60
2022-10-18T00:38:49.721Z,8.80
2022-10-18T00:41:21.784Z,8.80
2022-10-18T00:44:28.013Z,8.30
2022-10-18T00:46:59.704Z,8.50
2022-10-18T00:49:39.857Z,8.10
2022-10-18T00:52:12.095Z,8.00
2022-10-18T00:54:42.353Z,8.40
2022-10-18T00:57:10.505Z,8.20
2022-10-18T00:59:38.694Z,7.60
2022-10-18T01:02:07.408Z,7.30
2022-10-18T01:04:35.315Z,7.40
2022-10-18T01:07:32.037Z,7.30
2022-10-18T01:09:59.952Z,7.40
2022-10-18T01:12:30.508Z,7.10
2022-10-18T01:15:21.244Z,5.80
2022-10-18T01:18:19.441Z,7.00
2022-10-18T01:21:13.228Z,7.10
2022-10-18T01:24:00.283Z,6.00
2022-10-18T01:26:55.657Z,6.90
2022-10-18T01:30:00.984Z,6.50
2022-10-18T01:32:40.032Z,6.80
2022-10-18T01:35:13.418Z,7.00
2022-10-18T01:37:45.793Z,7.00
2022-10-18T01:40:17.333Z,6.90
2022-10-18T01:42:47.668Z,6.70
2022-10-18T01:45:16.918Z,6.80
2022-10-18T01:47:46.655Z,7.10
2022-10-18T01:50:14.670Z,6.10
2022-10-18T01:52:51.996Z,7.20
2022-10-18T01:55:32.683Z,6.90
2022-10-18T01:58:10.805Z,7.40
2022-10-18T02:00:44.928Z,7.00
2022-10-18T02:03:24.083Z,7.20
2022-10-18T02:05:58.323Z,6.70
2022-10-18T02:08:44.866Z,6.30
2022-10-18T02:11:15.187Z,6.10
2022-10-18T02:13:49.889Z,6.20
2022-10-18T02:16:21.555Z,6.50
2022-10-18T02:19:05.395Z,6.60
2022-10-18T02:21:34.279Z,6.10
2022-10-18T02:24:03.539Z,6.80
2022-10-18T02:26:31.366Z,6.10
2022-10-18T02:28:59.122Z,6.40
2022-10-18T02:31:41.123Z,6.60
2022-10-18T02:34:21.074Z,6.40
2022-10-18T02:36:55.184Z,6.40
2022-10-18T02:39:29.910Z,6.30
2022-10-18T02:41:58.301Z,6.50
2022-10-18T02:44:26.457Z,6.50
2022-10-18T02:46:54.426Z,6.40
2022-10-18T02:49:22.582Z,7.40
2022-10-18T02:51:50.258Z,6.40
2022-10-18T02:54:17.874Z,6.40
2022-10-18T02:56:45.597Z,6.20
2022-10-18T02:59:13.239Z,6.10
2022-10-18T03:01:40.975Z,6.30
2022-10-18T03:04:09.176Z,6.40
2022-10-18T03:06:36.961Z,6.30
2022-10-18T03:09:06.331Z,5.90
2022-10-18T03:11:34.131Z,5.60
2022-10-18T03:14:01.969Z,6.40
2022-10-18T03:16:29.836Z,6.20
2022-10-18T03:18:57.495Z,6.00
2022-10-18T03:21:25.159Z,6.90
2022-10-18T03:23:52.762Z,6.30
2022-10-18T03:26:21.721Z,6.20
2022-10-18T03:28:49.459Z,6.30
2022-10-18T03:31:17.407Z,6.00
2022-10-18T03:33:45.203Z,6.70
2022-10-18T03:36:12.966Z,7.20
2022-10-18T03:38:40.729Z,6.30
2022-10-18T03:41:08.493Z,6.00
2022-10-18T03:43:36.077Z,6.30
2022-10-18T03:46:03.916Z,6.40
2022-10-18T03:48:31.572Z,6.40
2022-10-18T03:50:59.248Z,6.40
2022-10-18T03:53:26.863Z,6.10
2022-10-18T03:55:56.033Z,6.30
2022-10-18T03:58:24.228Z,6.60
2022-10-18T04:00:53.172Z,6.10
2022-10-18T04:03:22.655Z,6.50
2022-10-18T04:05:50.610Z,6.70
2022-10-18T04:08:18.845Z,6.10
2022-10-18T04:10:46.720Z,6.20
2022-10-18T04:13:14.306Z,6.10
2022-10-18T04:15:43.006Z,6.30
2022-10-18T04:18:10.670Z,6.80
2022-10-18T04:20:38.473Z,6.20
2022-10-18T04:23:06.158Z,6.60
2022-10-18T04:25:33.814Z,6.70
2022-10-18T04:28:01.503Z,6.40
2022-10-18T04:30:29.094Z,7.00
2022-10-18T04:32:56.723Z,6.70
2022-10-18T04:35:25.992Z,6.80
2022-10-18T04:37:54.202Z,6.50
2022-10-18T04:40:21.794Z,6.60
2022-10-18T04:42:49.377Z,6.20
2022-10-18T04:45:17.078Z,6.50
2022-10-18T04:47:44.667Z,6.50
2022-10-18T04:50:12.282Z,6.30
2022-10-18T04:52:39.920Z,6.70
2022-10-18T04:55:07.904Z,6.70
2022-10-18T04:57:35.539Z,6.50
2022-10-18T05:00:04.391Z,7.00
2022-10-18T05:02:32.289Z,6.80
2022-10-18T05:04:59.969Z,6.50
2022-10-18T05:07:27.572Z,6.50
2022-10-18T05:09:55.232Z,6.10
2022-10-18T05:12:22.896Z,6.80
2022-10-18T05:14:50.555Z,6.70
2022-10-18T05:17:18.215Z,7.10
2022-10-18T05:19:45.785Z,6.70
2022-10-18T05:22:13.392Z,6.70
2022-10-18T05:24:41.097Z,6.50
2022-10-18T05:27:10.283Z,6.70
2022-10-18T05:29:37.952Z,7.00
2022-10-18T05:32:05.560Z,7.00
2022-10-18T05:34:33.168Z,7.60
2022-10-18T05:37:01.567Z,6.80
2022-10-18T05:39:29.190Z,7.00
2022-10-18T05:41:58.306Z,7.30
2022-10-18T05:44:26.375Z,7.40
2022-10-18T05:46:54.045Z,7.50
2022-10-18T05:49:21.720Z,6.90
2022-10-18T05:51:49.771Z,7.50
2022-10-18T05:54:17.631Z,7.60
2022-10-18T05:56:45.319Z,7.50
2022-10-18T05:59:13.260Z,7.10
2022-10-18T06:01:42.662Z,7.90
2022-10-18T06:04:10.527Z,7.60
2022-10-18T06:06:38.853Z,7.10
2022-10-18T06:09:08.289Z,6.90
2022-10-18T06:11:37.113Z,7.40
2022-10-18T06:14:05.218Z,8.00
2022-10-18T06:16:33.025Z,8.00
2022-10-18T06:19:00.897Z,7.60
2022-10-18T06:21:28.657Z,6.60
2022-10-18T06:23:58.986Z,8.30
2022-10-18T06:26:28.098Z,8.00
2022-10-18T06:28:56.104Z,7.60
2022-10-18T06:31:23.839Z,7.50
2022-10-18T06:33:51.573Z,7.10
2022-10-18T06:36:24.259Z,7.40
2022-10-18T06:38:52.404Z,7.30
2022-10-18T06:41:20.594Z,7.20
2022-10-18T06:43:53.876Z,7.50
2022-10-18T06:46:21.652Z,7.90
2022-10-18T06:48:49.419Z,7.60
2022-10-18T06:51:18.444Z,8.00
2022-10-18T06:53:59.234Z,7.80
2022-10-18T06:56:35.219Z,7.50
2022-10-18T06:59:02.998Z,7.60
2022-10-18T07:01:31.055Z,7.80
2022-10-18T07:03:58.852Z,7.30
2022-10-18T07:06:26.924Z,7.40
2022-10-18T07:08:54.874Z,7.40
2022-10-18T07:11:25.834Z,7.10
2022-10-18T07:13:55.440Z,7.20
2022-10-18T07:16:23.156Z,7.50
2022-10-18T07:18:51.771Z,7.80
2022-10-18T07:21:22.391Z,6.80
2022-10-18T07:23:51.694Z,6.70
2022-10-18T07:26:25.332Z,7.20
2022-10-18T07:28:57.970Z,6.90
2022-10-18T07:31:26.239Z,7.70
2022-10-18T07:33:54.616Z,7.80
2022-10-18T07:36:22.517Z,6.80
2022-10-18T07:38:52.086Z,7.30
2022-10-18T07:41:20.283Z,7.20
2022-10-18T07:43:51.048Z,7.20
2022-10-18T07:46:20.927Z,7.70
2022-10-18T07:48:49.322Z,8.10
2022-10-18T07:51:18.688Z,7.90
2022-10-18T07:53:46.310Z,7.60
2022-10-18T07:56:16.634Z,7.00
2022-10-18T07:58:46.211Z,8.00
2022-10-18T08:01:14.859Z,8.30
2022-10-18T08:03:43.459Z,7.70
2022-10-18T08:06:13.085Z,7.40
2022-10-18T08:08:41.294Z,7.70
2022-10-18T08:11:11.768Z,8.60
2022-10-18T08:13:39.509Z,8.50
2022-10-18T08:16:09.824Z,8.10
2022-10-18T08:18:38.205Z,8.30
2022-10-18T08:21:08.742Z,8.20
2022-10-18T08:23:37.440Z,8.00
2022-10-18T08:26:08.736Z,7.70
2022-10-18T08:28:37.131Z,7.90
2022-10-18T08:31:07.879Z,7.70
2022-10-18T08:33:36.292Z,7.60
2022-10-18T08:36:06.212Z,8.50
2022-10-18T08:38:36.171Z,7.80
2022-10-18T08:41:37.925Z,7.90
2022-10-18T08:44:14.309Z,8.90
2022-10-18T08:46:45.939Z,8.30
2022-10-18T08:49:28.585Z,7.90
2022-10-18T08:51:57.875Z,8.70
2022-10-18T08:54:44.487Z,9.60
2022-10-18T08:57:16.059Z,9.90
2022-10-18T08:59:44.513Z,9.00
2022-10-18T09:02:33.740Z,9.50
2022-10-18T09:05:10.755Z,9.00
2022-10-18T09:08:11.687Z,9.40
2022-10-18T09:11:02.062Z,9.50
2022-10-18T09:14:02.319Z,10.30
2022-10-18T09:16:50.339Z,11.30
2022-10-18T09:19:29.733Z,10.90
2022-10-18T09:22:07.460Z,10.40
2022-10-18T09:24:52.170Z,11.30
2022-10-18T09:27:22.572Z,10.70
2022-10-18T09:30:08.464Z,10.80
2022-10-18T09:32:48.728Z,10.90
2022-10-18T09:35:33.963Z,10.70
2022-10-18T09:38:05.833Z,10.60
2022-10-18T09:40:37.837Z,11.10
2022-10-18T09:43:17.251Z,10.10
2022-10-18T09:45:47.162Z,10.50
2022-10-18T09:48:21.233Z,10.50
2022-10-18T09:51:03.480Z,11.90
2022-10-18T09:53:38.644Z,10.40
2022-10-18T09:58:48.490Z,10.90
2022-10-18T10:01:24.740Z,11.10
2022-10-18T10:03:53.146Z,11.90
2022-10-18T10:06:49.754Z,11.30
2022-10-18T10:09:21.370Z,10.60
2022-10-18T10:11:50.989Z,10.50
2022-10-18T10:14:23.184Z,11.00
2022-10-18T10:16:52.691Z,11.90
2022-10-18T10:19:42.737Z,12.10
2022-10-18T10:22:13.299Z,11.40
2022-10-18T10:24:51.099Z,11.20
2022-10-18T10:27:18.960Z,10.00
2022-10-18T10:29:46.682Z,11.80
2022-10-18T10:32:17.407Z,10.70
2022-10-18T10:34:45.425Z,12.40
2022-10-18T10:37:37.790Z,12.00
2022-10-18T10:40:17.979Z,12.90
2022-10-18T10:43:12.813Z,12.10
2022-10-18T10:45:58.499Z,11.70
2022-10-18T10:48:32.335Z,12.40
2022-10-18T10:51:06.219Z,12.80
2022-10-18T10:53:57.634Z,12.80
2022-10-18T10:56:29.696Z,12.70
2022-10-18T10:59:07.419Z,11.40
2022-10-18T11:01:36.483Z,13.10
2022-10-18T11:04:24.083Z,14.60
2022-10-18T11:07:09.181Z,14.80
2022-10-18T11:09:51.610Z,14.80
2022-10-18T11:12:37.966Z,14.70
2022-10-18T11:15:18.350Z,13.60
2022-10-18T11:17:57.587Z,14.70
2022-10-18T11:20:35.278Z,14.10
2022-10-18T11:23:07.440Z,13.70
2022-10-18T11:26:02.551Z,14.40
2022-10-18T11:28:32.965Z,13.90
2022-10-18T11:31:27.563Z,13.10
2022-10-18T11:34:11.687Z,13.60
2022-10-18T11:37:30.082Z,13.70
2022-10-18T11:40:16.985Z,13.70
2022-10-18T11:43:10.440Z,15.20
2022-10-18T11:45:53.260Z,13.50
2022-10-18T11:48:26.752Z,13.50
2022-10-18T11:51:06.396Z,14.10
2022-10-18T11:54:06.831Z,13.60
2022-10-18T11:56:49.517Z,13.70
2022-10-18T11:59:52.116Z,15.60
2022-10-18T12:02:49.896Z,14.50
2022-10-18T12:05:23.668Z,14.30
2022-10-18T12:08:10.891Z,14.80
2022-10-18T12:10:59.859Z,14.90
2022-10-18T12:13:36.946Z,13.60
2022-10-18T12:16:06.979Z,13.70
2022-10-18T12:18:41.715Z,14.10
2022-10-18T12:21:12.866Z,14.40
2022-10-18T12:23:46.750Z,13.90
2022-10-18T12:26:15.171Z,13.30
2022-10-18T12:28:53.858Z,14.90
2022-10-18T12:31:49.254Z,14.10
2022-10-18T12:34:22.742Z,16.10
2022-10-18T12:39:51.842Z,13.20
2022-10-18T12:42:33.382Z,15.50
2022-10-18T12:45:19.737Z,14.50
2022-10-18T12:47:47.425Z,14.10
2022-10-18T12:50:27.253Z,13.90
2022-10-18T12:53:10.167Z,13.10
2022-10-18T12:55:44.269Z,13.90
2022-10-18T12:58:15.012Z,12.90
2022-10-18T13:00:42.668Z,14.00
2022-10-18T13:03:13.196Z,14.50
2022-10-18T13:05:54.521Z,14.90
2022-10-18T13:08:30.145Z,13.70
2022-10-18T13:11:10.256Z,14.60
2022-10-18T13:14:00.518Z,14.20
2022-10-18T13:16:31.176Z,14.60
2022-10-18T13:19:10.822Z,13.80
2022-10-18T13:22:13.627Z,13.70
2022-10-18T13:25:04.209Z,13.40
2022-10-18T13:27:38.406Z,15.70
2022-10-18T13:30:05.953Z,14.40
2022-10-18T13:33:08.676Z,15.30
2022-10-18T13:35:54.890Z,13.80
2022-10-18T13:39:02.814Z,14.60
2022-10-18T13:41:56.551Z,14.30
2022-10-18T13:44:40.496Z,13.00
2022-10-18T13:47:11.084Z,13.30
2022-10-18T13:49:38.675Z,14.90
2022-10-18T13:52:41.836Z,12.80
2022-10-18T13:55:32.565Z,14.40
2022-10-18T13:58:22.049Z,14.70
2022-10-18T14:00:52.885Z,14.20
2022-10-18T14:04:10.418Z,13.40
2022-10-18T14:06:44.026Z,14.40
2022-10-18T14:12:23.961Z,16.20
2022-10-18T14:15:10.492Z,15.30
2022-10-18T14:17:44.497Z,16.00
2022-10-18T14:20:19.533Z,15.20
2022-10-18T14:23:01.731Z,15.00
2022-10-18T14:25:32.943Z,15.60
2022-10-18T14:28:36.300Z,14.70
2022-10-18T14:31:14.890Z,15.30
2022-10-18T14:33:43.779Z,13.80
2022-10-18T14:36:19.118Z,15.90
2022-10-18T14:39:05.259Z,16.80
2022-10-18T14:41:35.495Z,16.40
2022-10-18T14:44:14.972Z,15.60
2022-10-18T14:46:46.933Z,15.80
2022-10-18T14:49:15.590Z,17.50
2022-10-18T14:51:45.838Z,17.20
2022-10-18T14:54:19.692Z,17.60
2022-10-18T14:56:48.140Z,18.40
2022-10-18T14:59:21.989Z,17.90
2022-10-18T15:01:56.048Z,16.80
2022-10-18T15:04:32.596Z,18.30
2022-10-18T15:07:03.140Z,20.80
2022-10-18T15:09:33.460Z,19.90
2022-10-18T15:12:05.728Z,23.80
2022-10-18T15:14:34.830Z,18.30
2022-10-18T15:17:14.011Z,18.30
2022-10-18T15:19:54.401Z,19.50
2022-10-18T15:22:32.200Z,19.30
2022-10-18T15:25:09.453Z,18.90
2022-10-18T15:30:43.195Z,20.00
2022-10-18T15:33:23.367Z,20.90
2022-10-18T15:35:52.731Z,20.60
2022-10-18T15:38:21.663Z,20.30
2022-10-18T15:40:50.018Z,20.40
2022-10-18T15:43:24.204Z,19.80
2022-10-18T15:46:05.277Z,22.30
2022-10-18T15:48:40.516Z,23.30
2022-10-18T15:51:24.292Z,24.40
2022-10-18T15:53:55.423Z,17.10
2022-10-18T15:56:35.710Z,9.50
2022-10-18T15:59:23.762Z,8.10
2022-10-18T16:01:52.344Z,7.60
2022-10-18T16:04:24.233Z,5.70
2022-10-18T16:06:52.528Z,6.00
2022-10-18T16:09:22.118Z,5.30
2022-10-18T16:11:56.387Z,5.60
2022-10-18T16:14:26.044Z,8.20
2022-10-18T16:16:56.584Z,15.50
2022-10-18T16:19:24.452Z,11.40
2022-10-18T16:21:54.161Z,8.40
2022-10-18T16:24:22.952Z,8.90
2022-10-18T16:26:51.342Z,9.30
2022-10-18T16:29:24.509Z,9.10
2022-10-18T16:31:53.712Z,11.20
2022-10-18T16:34:33.058Z,11.90
2022-10-18T16:37:01.237Z,9.90
2022-10-18T16:39:32.173Z,9.80
2022-10-18T16:41:59.976Z,9.50
2022-10-18T16:44:28.093Z,8.90
2022-10-18T16:46:56.440Z,10.70
2022-10-18T16:49:26.066Z,13.60
2022-10-18T16:51:54.348Z,12.90
2022-10-18T16:54:22.941Z,12.90
2022-10-18T16:56:50.697Z,15.90
2022-10-18T16:59:30.185Z,16.10
2022-10-18T17:01:58.009Z,18.40
2022-10-18T17:04:25.867Z,20.50
2022-10-18T17:06:57.289Z,21.10
2022-10-18T17:09:25.185Z,24.20
2022-10-18T17:11:52.841Z,22.00
2022-10-18T17:14:20.708Z,23.40
2022-10-18T17:16:52.319Z,24.60
2022-10-18T17:19:23.606Z,21.40
2022-10-18T17:21:51.233Z,22.10
2022-10-18T17:24:18.828Z,20.30
2022-10-18T17:26:46.502Z,19.00
2022-10-18T17:29:14.328Z,8.90
2022-10-18T17:31:42.101Z,6.80
2022-10-18T17:34:09.724Z,5.90
2022-10-18T17:36:38.132Z,4.90
2022-10-18T17:39:05.742Z,5.90
2022-10-18T17:41:33.474Z,5.60
2022-10-18T17:44:03.701Z,5.60
2022-10-18T17:46:31.975Z,4.40
2022-10-18T17:48:59.581Z,5.10
2022-10-18T17:51:27.173Z,4.60
2022-10-18T17:53:54.848Z,6.60
2022-10-18T17:56:22.525Z,7.70
2022-10-18T17:58:51.613Z,7.70
2022-10-18T18:01:23.842Z,6.30
2022-10-18T18:03:57.269Z,6.50
2022-10-18T18:06:34.174Z,8.30
2022-10-18T18:09:07.331Z,8.10
2022-10-18T18:11:36.681Z,8.40
2022-10-18T18:14:09.732Z,11.10
2022-10-18T18:16:40.131Z,13.80
2022-10-18T18:19:10.079Z,10.30
2022-10-18T18:21:39.409Z,8.40
2022-10-18T18:24:08.168Z,7.20
2022-10-18T18:26:37.611Z,8.00
2022-10-18T18:29:05.505Z,7.80
2022-10-18T18:31:38.754Z,8.30
2022-10-18T18:34:09.824Z,7.40
2022-10-18T18:36:37.511Z,6.30
2022-10-18T18:39:06.019Z,5.50
2022-10-18T18:41:33.756Z,5.50
2022-10-18T18:44:04.484Z,6.30
2022-10-18T18:46:36.937Z,5.60
2022-10-18T18:49:06.183Z,5.80
2022-10-18T18:51:37.449Z,5.70
2022-10-18T18:54:05.660Z,5.00
2022-10-18T18:56:34.141Z,5.40
2022-10-18T18:59:02.332Z,4.90
2022-10-18T19:01:33.302Z,5.10
2022-10-18T19:04:01.508Z,5.20
2022-10-18T19:06:32.172Z,5.70
2022-10-18T19:09:04.936Z,6.20
2022-10-18T19:11:36.144Z,5.60
2022-10-18T19:14:04.612Z,5.90
2022-10-18T19:16:36.256Z,5.30
2022-10-18T19:19:14.256Z,6.10
2022-10-18T19:21:47.524Z,5.70
2022-10-18T19:24:15.687Z,6.50
2022-10-18T19:26:49.401Z,5.70
2022-10-18T19:29:24.647Z,6.70
2022-10-18T19:31:54.561Z,7.00
2022-10-18T19:34:24.285Z,7.70
2022-10-18T19:36:52.409Z,8.50
2022-10-18T19:39:25.708Z,9.80
2022-10-18T19:41:56.361Z,9.60
2022-10-18T19:44:27.512Z,9.60
2022-10-18T19:46:55.469Z,9.90
2022-10-18T19:49:23.441Z,10.90
2022-10-18T19:51:51.101Z,10.60
2022-10-18T19:54:18.743Z,11.60
2022-10-18T19:56:46.929Z,11.90
2022-10-18T19:59:17.037Z,11.90
2022-10-18T20:01:45.540Z,11.40
2022-10-18T20:04:13.500Z,12.10
2022-10-18T20:06:42.804Z,11.50
2022-10-18T20:09:14.682Z,10.30
2022-10-18T20:11:45.594Z,11.10
2022-10-18T20:14:13.258Z,11.00
2022-10-18T20:16:41.224Z,10.50
2022-10-18T20:19:09.700Z,10.40
2022-10-18T20:21:37.434Z,8.90
2022-10-18T20:24:06.596Z,11.20
2022-10-18T20:26:35.839Z,10.70
2022-10-18T20:29:04.350Z,10.60
2022-10-18T20:31:35.783Z,10.50
2022-10-18T20:34:09.121Z,11.60
2022-10-18T20:36:37.248Z,11.00
2022-10-18T20:39:06.533Z,11.50
2022-10-18T20:41:38.109Z,11.10
2022-10-18T20:44:10.704Z,11.80
2022-10-18T20:46:39.161Z,12.00
2022-10-18T20:49:08.664Z,12.90
2022-10-18T20:51:36.443Z,12.90
2022-10-18T20:56:39.449Z,11.60
2022-10-18T20:59:10.042Z,12.60
2022-10-18T21:01:39.626Z,12.90
2022-10-18T21:04:09.996Z,14.50
2022-10-18T21:06:41.032Z,12.70
2022-10-18T21:09:12.384Z,14.30
2022-10-18T21:11:42.385Z,14.20
2022-10-18T21:14:13.666Z,14.40
2022-10-18T21:16:42.890Z,13.00
2022-10-18T21:19:16.638Z,15.30
2022-10-18T21:21:47.282Z,16.50
2022-10-18T21:24:14.991Z,15.60
2022-10-18T21:26:43.214Z,15.20
2022-10-18T21:29:12.625Z,16.20
2022-10-18T21:31:42.438Z,16.80
2022-10-18T21:34:16.015Z,16.50
2022-10-18T21:36:47.568Z,16.80
2022-10-18T21:39:18.962Z,16.10
2022-10-18T21:41:47.080Z,16.60
2022-10-18T21:44:15.879Z,16.70
2022-10-18T21:46:43.844Z,17.10
2022-10-18T21:49:11.797Z,17.30
2022-10-18T21:51:40.000Z,16.00
2022-10-18T21:54:12.355Z,16.40
2022-10-18T21:56:40.653Z,17.00
2022-10-18T21:59:11.175Z,18.20
2022-10-18T22:01:39.875Z,17.60
2022-10-18T22:04:16.999Z,17.60
2022-10-18T22:06:44.633Z,17.50
2022-10-18T22:09:12.275Z,17.90
2022-10-18T22:11:50.282Z,18.20
2022-10-18T22:14:18.002Z,19.70
2022-10-18T22:16:45.776Z,17.70
2022-10-18T22:19:13.645Z,18.30
2022-10-18T22:21:41.240Z,17.30
2022-10-18T22:24:10.056Z,18.30
2022-10-18T22:26:40.828Z,18.10
2022-10-18T22:29:20.901Z,17.80
2022-10-18T22:31:51.099Z,18.60
2022-10-18T22:34:27.538Z,18.50
2022-10-18T22:36:56.447Z,18.10
2022-10-18T22:39:24.838Z,19.50
2022-10-18T22:41:55.905Z,19.10
2022-10-18T22:44:24.246Z,17.60
2022-10-18T22:46:52.094Z,19.50
2022-10-18T22:49:19.770Z,18.70
2022-10-18T22:51:47.534Z,17.90
2022-10-18T22:54:15.302Z,19.00
2022-10-18T22:56:43.259Z,19.30
2022-10-18T22:59:10.856Z,18.50
2022-10-18T23:01:38.791Z,18.60
2022-10-18T23:04:06.453Z,19.90
2022-10-18T23:06:36.071Z,18.30
2022-10-18T23:09:10.581Z,17.90
2022-10-18T23:11:38.226Z,17.90
2022-10-18T23:14:06.849Z,18.60
2022-10-18T23:16:34.587Z,19.30
2022-10-18T23:19:02.555Z,17.90
2022-10-18T23:21:30.212Z,19.30
2022-10-18T23:23:57.985Z,17.60
2022-10-18T23:26:27.904Z,18.00
2022-10-18T23:28:56.471Z,17.20
2022-10-18T23:31:30.277Z,17.00
2022-10-18T23:34:01.009Z,16.90
2022-10-18T23:36:29.390Z,17.20
2022-10-18T23:38:57.297Z,16.80
2022-10-18T23:41:25.837Z,16.70
2022-10-18T23:43:54.021Z,15.80
2022-10-18T23:46:22.182Z,16.00
2022-10-18T23:48:50.235Z,15.90
2022-10-18T23:51:18.333Z,15.20
2022-10-18T23:53:46.477Z,15.40
2022-10-18T23:56:16.302Z,16.30
2022-10-18T23:58:45.158Z,17.30
